Time;durP1;ratioP1;P1;durP2;ratioP2;P2;SDS_P1;SDS_P2;PMS_P1;PMS_P2;Temp;Humidity;BMP_temperature;BMP_pressure;BME280_temperature;BME280_humidity;BME280_pressure;Samples;Min_cycle;Max_cycle;Signal;HPM_P1;HPM_P2
2023/08/08 00:01:06;;;;;;;8.90;3.30;;;14.00;99.90;;;;;;5100360;28;20126;-78
2023/08/08 00:03:32;;;;;;;7.40;2.45;;;14.00;99.90;;;;;;5091440;28;20093;-78
2023/08/08 00:05:58;;;;;;;8.93;3.45;;;13.90;99.90;;;;;;5098411;28;20032;-78
2023/08/08 00:08:23;;;;;;;8.25;2.72;;;13.90;99.90;;;;;;5102734;28;20406;-77
2023/08/08 00:10:49;;;;;;;6.00;2.65;;;13.90;99.90;;;;;;5108461;28;20448;-79
2023/08/08 00:13:15;;;;;;;8.07;2.38;;;13.90;99.90;;;;;;5104454;28;20051;-78
2023/08/08 00:15:41;;;;;;;4.80;2.88;;;13.80;99.90;;;;;;5118678;28;20059;-78
2023/08/08 00:18:07;;;;;;;11.27;2.95;;;13.90;99.90;;;;;;5122327;28;20047;-79
2023/08/08 00:20:32;;;;;;;6.53;2.55;;;13.80;99.90;;;;;;5116850;28;20380;-79
2023/08/08 00:22:58;;;;;;;7.53;2.65;;;13.80;99.90;;;;;;5122078;28;20043;-79
2023/08/08 00:25:25;;;;;;;7.45;3.05;;;13.80;99.90;;;;;;5123630;28;20481;-79
2023/08/08 00:27:51;;;;;;;6.90;2.78;;;13.80;99.90;;;;;;5115652;28;20096;-79
2023/08/08 00:30:16;;;;;;;7.47;2.50;;;13.80;99.90;;;;;;5114614;28;20055;-79
2023/08/08 00:32:42;;;;;;;5.82;2.95;;;13.70;99.90;;;;;;5115649;28;20054;-79
2023/08/08 00:35:08;;;;;;;8.82;2.78;;;13.80;99.90;;;;;;5121968;28;20039;-79
2023/08/08 00:37:35;;;;;;;6.20;2.75;;;13.70;99.90;;;;;;5123425;28;20043;-79
2023/08/08 00:40:01;;;;;;;6.45;3.10;;;13.70;99.90;;;;;;5107368;28;20040;-79
2023/08/08 00:42:27;;;;;;;8.82;3.53;;;13.70;99.90;;;;;;5111977;28;20031;-79
2023/08/08 00:44:52;;;;;;;7.05;2.72;;;13.70;99.90;;;;;;5121719;28;20191;-80
2023/08/08 00:47:18;;;;;;;7.60;3.10;;;13.70;99.90;;;;;;5122264;28;20052;-78
2023/08/08 00:49:46;;;;;;;7.43;2.90;;;13.70;99.90;;;;;;5102922;28;20040;-79
2023/08/08 00:52:13;;;;;;;6.63;2.92;;;13.70;99.90;;;;;;5106400;28;20052;-79
2023/08/08 00:54:39;;;;;;;6.30;2.90;;;13.70;99.90;;;;;;5104932;28;20072;-79
2023/08/08 00:57:05;;;;;;;6.93;2.83;;;13.60;99.90;;;;;;5107271;28;20055;-80
2023/08/08 00:59:31;;;;;;;6.40;3.17;;;13.60;99.90;;;;;;5107356;28;20091;-80
2023/08/08 01:01:57;;;;;;;4.75;2.60;;;13.70;99.90;;;;;;5123817;28;20496;-79
2023/08/08 01:04:25;;;;;;;4.90;2.55;;;13.60;99.90;;;;;;5125674;28;20164;-77
2023/08/08 01:07:10;;;;;;;6.20;3.15;;;13.60;99.90;;;;;;5115281;28;20111;-79
2023/08/08 01:10:06;;;;;;;9.35;3.35;;;13.60;99.90;;;;;;5107490;28;20402;-79
2023/08/08 01:12:32;;;;;;;8.82;2.95;;;13.60;99.90;;;;;;5120482;28;20039;-79
2023/08/08 01:14:58;;;;;;;5.25;2.92;;;13.60;99.90;;;;;;5118242;28;20044;-79
2023/08/08 01:17:25;;;;;;;5.20;2.53;;;13.50;99.90;;;;;;5124765;28;20036;-79
2023/08/08 01:19:51;;;;;;;7.47;3.08;;;13.50;99.90;;;;;;5124382;28;20051;-79
2023/08/08 01:22:32;;;;;;;10.68;3.35;;;13.70;99.90;;;;;;5124740;28;20055;-79
2023/08/08 01:24:58;;;;;;;7.05;3.17;;;13.50;99.90;;;;;;5107276;28;20048;-79
2023/08/08 01:27:24;;;;;;;7.35;3.10;;;13.50;99.90;;;;;;5102461;28;20050;-78
2023/08/08 01:29:50;;;;;;;6.72;2.80;;;13.50;99.90;;;;;;5096911;28;20044;-78
2023/08/08 01:32:16;;;;;;;7.88;3.03;;;13.50;99.90;;;;;;5119130;28;20036;-78
2023/08/08 01:34:42;;;;;;;8.40;3.40;;;13.50;99.90;;;;;;5120421;28;20046;-78
2023/08/08 01:37:22;;;;;;;7.93;3.70;;;13.50;99.90;;;;;;5105360;28;20056;-80
2023/08/08 01:39:50;;;;;;;5.45;3.00;;;13.50;99.90;;;;;;5105376;28;20044;-79
2023/08/08 01:42:18;;;;;;;8.27;2.97;;;13.50;99.90;;;;;;5090106;28;20047;-79
2023/08/08 01:44:44;;;;;;;7.82;3.25;;;13.50;99.90;;;;;;5100958;28;20044;-79
2023/08/08 01:47:09;;;;;;;10.63;3.53;;;13.50;99.90;;;;;;5119904;28;20043;-79
2023/08/08 01:49:35;;;;;;;9.00;3.20;;;13.50;99.90;;;;;;5106835;28;20134;-79
2023/08/08 01:52:01;;;;;;;8.27;2.97;;;13.60;99.90;;;;;;5100641;28;20409;-79
2023/08/08 01:54:26;;;;;;;8.45;2.85;;;13.60;99.90;;;;;;5115297;28;20066;-79
2023/08/08 01:56:52;;;;;;;7.07;2.65;;;13.60;99.90;;;;;;5085076;28;20051;-79
2023/08/08 01:59:18;;;;;;;5.82;2.80;;;13.60;99.90;;;;;;5119538;28;20039;-80
2023/08/08 02:01:43;;;;;;;6.28;2.78;;;13.60;99.90;;;;;;5124065;28;20046;-80
2023/08/08 02:04:09;;;;;;;8.13;2.95;;;13.60;99.90;;;;;;5123033;28;20406;-80
2023/08/08 02:06:35;;;;;;;5.55;2.75;;;13.60;99.90;;;;;;5123262;28;20062;-79
2023/08/08 02:09:00;;;;;;;9.90;2.92;;;13.60;99.90;;;;;;5120646;28;20051;-79
2023/08/08 02:11:26;;;;;;;11.60;3.00;;;13.60;99.90;;;;;;5121130;28;20043;-79
2023/08/08 02:13:51;;;;;;;7.97;2.80;;;13.70;99.90;;;;;;5108786;28;20105;-78
2023/08/08 02:16:22;;;;;;;8.18;2.97;;;13.70;99.90;;;;;;5102251;28;20522;-78
2023/08/08 02:18:47;;;;;;;10.93;3.65;;;13.70;99.90;;;;;;5102513;28;20048;-79
2023/08/08 02:21:13;;;;;;;5.65;3.00;;;13.80;99.90;;;;;;5103704;28;20040;-79
2023/08/08 02:23:41;;;;;;;8.27;2.88;;;13.80;99.90;;;;;;5114806;28;20069;-79
2023/08/08 02:26:07;;;;;;;;;;;13.80;99.90;;;;;;5124317;28;20039;-80
2023/08/08 02:28:33;;;;;;;8.43;3.28;;;13.80;99.90;;;;;;5127195;28;19920;-79
2023/08/08 02:30:59;;;;;;;8.75;3.22;;;13.80;99.90;;;;;;5126215;28;20050;-81
2023/08/08 02:33:25;;;;;;;12.52;3.45;;;13.80;99.90;;;;;;5114591;28;20036;-80
2023/08/08 02:35:50;;;;;;;8.02;3.20;;;13.80;99.90;;;;;;5106705;28;20124;-79
2023/08/08 02:38:16;;;;;;;6.72;3.60;;;13.80;99.90;;;;;;5105767;28;20036;-80
2023/08/08 02:40:42;;;;;;;5.90;3.17;;;13.80;99.90;;;;;;5105385;28;20044;-80
2023/08/08 02:43:09;;;;;;;7.40;3.30;;;13.80;99.90;;;;;;5124134;28;20039;-80
2023/08/08 02:45:34;;;;;;;10.00;3.25;;;13.80;99.90;;;;;;5096686;28;20047;-79
2023/08/08 02:48:00;;;;;;;8.50;3.03;;;13.80;99.90;;;;;;5126085;28;20048;-79
2023/08/08 02:50:26;;;;;;;8.48;2.97;;;13.80;99.90;;;;;;5113813;28;20040;-79
2023/08/08 02:52:52;;;;;;;8.45;3.28;;;13.90;99.90;;;;;;5105892;28;20039;-79
2023/08/08 02:55:17;;;;;;;7.72;2.85;;;13.80;99.90;;;;;;5111517;28;20099;-79
2023/08/08 02:57:43;;;;;;;7.70;3.33;;;13.80;99.90;;;;;;5103459;28;20389;-78
2023/08/08 03:00:11;;;;;;;10.07;3.92;;;13.90;99.90;;;;;;5119008;27;20119;-77
2023/08/08 03:02:36;;;;;;;9.65;2.83;;;13.80;99.90;;;;;;5112697;28;20051;-78
2023/08/08 03:05:02;;;;;;;10.70;3.20;;;13.80;99.90;;;;;;5100891;28;20040;-79
2023/08/08 03:07:28;;;;;;;12.30;2.95;;;13.80;99.90;;;;;;5101270;28;20044;-78
2023/08/08 03:09:57;;;;;;;10.45;2.88;;;13.80;99.90;;;;;;5108821;28;20043;-79
2023/08/08 03:12:22;;;;;;;8.73;2.75;;;13.70;99.90;;;;;;5119937;28;20039;-78
2023/08/08 03:14:48;;;;;;;8.40;2.67;;;13.70;99.90;;;;;;5125364;28;20044;-79
2023/08/08 03:17:14;;;;;;;6.45;2.50;;;13.80;99.90;;;;;;5119304;28;20039;-79
2023/08/08 03:19:43;;;;;;;10.88;2.40;;;13.80;99.90;;;;;;5084733;28;20064;-78
2023/08/08 03:22:09;;;;;;;6.40;2.33;;;13.80;99.90;;;;;;5097791;28;20052;-77
2023/08/08 03:24:37;;;;;;;8.23;2.33;;;13.80;99.90;;;;;;5117988;28;20051;-78
2023/08/08 03:27:03;;;;;;;7.55;2.65;;;13.80;99.90;;;;;;5118356;28;20043;-78
2023/08/08 03:29:30;;;;;;;7.15;2.60;;;13.70;99.90;;;;;;5120999;28;20036;-80
2023/08/08 03:31:56;;;;;;;6.68;3.10;;;13.70;99.90;;;;;;5118175;28;20138;-78
2023/08/08 03:34:21;;;;;;;7.95;2.33;;;13.70;99.90;;;;;;5101550;28;20549;-78
2023/08/08 03:36:47;;;;;;;6.05;2.20;;;13.70;99.90;;;;;;5120058;28;20126;-79
2023/08/08 03:39:12;;;;;;;5.40;2.42;;;13.70;99.90;;;;;;5111916;28;20084;-78
2023/08/08 03:41:38;;;;;;;7.78;2.30;;;13.70;99.90;;;;;;5106594;28;20040;-78
2023/08/08 03:44:04;;;;;;;7.93;2.35;;;13.70;99.90;;;;;;5119614;28;20044;-78
2023/08/08 03:46:30;;;;;;;7.20;2.08;;;13.60;99.90;;;;;;5104841;28;20053;-79
2023/08/08 03:48:55;;;;;;;9.18;2.15;;;13.60;99.90;;;;;;5118100;28;20482;-78
2023/08/08 03:51:21;;;;;;;5.25;1.80;;;13.60;99.90;;;;;;5120086;28;20043;-78
2023/08/08 03:53:47;;;;;;;8.90;2.22;;;13.60;99.90;;;;;;5120149;28;20040;-79
2023/08/08 03:56:12;;;;;;;7.22;2.40;;;13.60;99.90;;;;;;5107836;28;20067;-78
2023/08/08 03:58:38;;;;;;;4.40;1.75;;;13.50;99.90;;;;;;5121556;28;20116;-78
2023/08/08 04:01:04;;;;;;;8.50;2.53;;;13.50;99.90;;;;;;5116711;28;20126;-78
2023/08/08 04:03:29;;;;;;;6.70;1.95;;;13.50;99.90;;;;;;5095614;28;20048;-77
2023/08/08 04:05:56;;;;;;;9.73;2.13;;;13.50;99.90;;;;;;5098560;28;20059;-79
2023/08/08 04:08:22;;;;;;;3.88;1.90;;;13.50;99.90;;;;;;5097805;28;20513;-78
2023/08/08 04:10:48;;;;;;;9.10;2.03;;;13.40;99.90;;;;;;5102859;28;20040;-79
2023/08/08 04:13:16;;;;;;;6.85;2.20;;;13.40;99.90;;;;;;5106394;28;20040;-79
2023/08/08 04:15:42;;;;;;;7.25;2.50;;;13.40;99.90;;;;;;5116875;28;20050;-78
2023/08/08 04:18:07;;;;;;;9.75;2.35;;;13.40;99.90;;;;;;5104140;28;20046;-78
2023/08/08 04:20:34;;;;;;;5.78;2.30;;;13.30;99.90;;;;;;5097453;28;20040;-78
2023/08/08 04:22:59;;;;;;;4.75;1.85;;;13.30;99.90;;;;;;5097935;28;20052;-79
2023/08/08 04:25:26;;;;;;;5.70;1.75;;;13.30;99.90;;;;;;5110914;28;20100;-78
2023/08/08 04:27:52;;;;;;;6.68;1.92;;;13.30;99.90;;;;;;5117086;28;20043;-78
2023/08/08 04:30:18;;;;;;;5.95;2.17;;;13.30;99.90;;;;;;5098228;28;20036;-78
2023/08/08 04:32:44;;;;;;;6.85;2.20;;;13.30;99.90;;;;;;5109285;28;20126;-78
2023/08/08 04:35:12;;;;;;;5.32;2.22;;;13.30;99.90;;;;;;5118850;28;20044;-79
2023/08/08 04:37:38;;;;;;;7.28;2.00;;;13.30;99.90;;;;;;5118804;28;20100;-79
2023/08/08 04:40:04;;;;;;;6.53;2.17;;;13.30;99.90;;;;;;5100912;28;20051;-78
2023/08/08 04:42:30;;;;;;;6.85;2.10;;;13.40;99.90;;;;;;5118039;28;20107;-78
2023/08/08 04:44:59;;;;;;;6.30;1.88;;;13.40;99.90;;;;;;5096302;28;20040;-79
2023/08/08 04:47:24;;;;;;;5.20;1.83;;;13.40;99.90;;;;;;5095314;28;20111;-79
2023/08/08 04:49:50;;;;;;;7.47;1.92;;;13.40;99.90;;;;;;5098240;28;20080;-77
2023/08/08 04:52:16;;;;;;;4.95;1.98;;;13.40;99.90;;;;;;5099105;28;20056;-78
2023/08/08 04:54:41;;;;;;;8.50;1.98;;;13.50;99.90;;;;;;5109493;28;20489;-79
2023/08/08 04:57:07;;;;;;;8.38;2.78;;;13.50;99.90;;;;;;5104157;28;20044;-78
2023/08/08 04:59:33;;;;;;;9.15;2.55;;;13.50;99.90;;;;;;5115121;28;20500;-78
2023/08/08 05:01:58;;;;;;;7.38;2.45;;;13.50;99.90;;;;;;5118519;28;20042;-78
2023/08/08 05:04:24;;;;;;;8.38;2.25;;;13.50;99.90;;;;;;5097578;28;20044;-78
2023/08/08 05:06:50;;;;;;;10.63;2.00;;;13.60;99.90;;;;;;5095010;28;20067;-78
2023/08/08 05:09:15;;;;;;;7.32;1.90;;;13.70;99.90;;;;;;5094870;28;20090;-78
2023/08/08 05:11:41;;;;;;;8.52;2.00;;;13.70;99.90;;;;;;5116084;28;20501;-78
2023/08/08 05:14:07;;;;;;;6.13;2.10;;;13.80;99.90;;;;;;5115584;28;20044;-77
2023/08/08 05:16:32;;;;;;;6.30;1.83;;;13.80;99.90;;;;;;5114541;28;20112;-77
2023/08/08 05:18:58;;;;;;;5.22;2.20;;;13.90;99.90;;;;;;5114482;28;20131;-77
2023/08/08 05:21:24;;;;;;;5.50;2.05;;;13.90;99.90;;;;;;5122893;28;20546;-78
2023/08/08 05:23:49;;;;;;;5.80;2.05;;;14.00;99.90;;;;;;5118043;28;20554;-78
2023/08/08 05:26:18;;;;;;;8.73;2.33;;;14.10;99.90;;;;;;5115583;28;20046;-78
2023/08/08 05:28:43;;;;;;;;;;;14.10;99.90;;;;;;5110527;28;20040;-77
2023/08/08 05:31:10;;;;;;;8.60;2.15;;;14.20;99.90;;;;;;5119182;28;19975;-79
2023/08/08 05:33:35;;;;;;;8.85;2.58;;;14.50;99.90;;;;;;5100254;28;20051;-77
2023/08/08 05:36:01;;;;;;;13.10;2.20;;;14.30;99.90;;;;;;5114640;28;20044;-78
2023/08/08 05:38:27;;;;;;;6.00;2.17;;;14.50;99.90;;;;;;5120616;28;20073;-78
2023/08/08 05:40:52;;;;;;;6.97;1.98;;;14.50;99.90;;;;;;5118563;28;20046;-78
2023/08/08 05:43:18;;;;;;;10.43;2.20;;;14.50;99.90;;;;;;5112297;28;20044;-78
2023/08/08 05:45:45;;;;;;;6.15;1.83;;;14.70;99.90;;;;;;5095553;28;20505;-77
2023/08/08 05:48:12;;;;;;;10.07;2.90;;;14.90;99.90;;;;;;5100852;28;20048;-78
2023/08/08 05:50:41;;;;;;;7.18;1.80;;;15.00;99.90;;;;;;5118438;28;20051;-78
2023/08/08 05:53:07;;;;;;;7.65;1.92;;;15.10;99.90;;;;;;5122028;28;20067;-78
2023/08/08 05:55:32;;;;;;;23.05;3.25;;;15.30;99.90;;;;;;5120303;28;20039;-80
2023/08/08 05:57:58;;;;;;;8.23;1.85;;;15.40;99.90;;;;;;5120928;28;20043;-79
2023/08/08 06:00:24;;;;;;;9.98;2.08;;;15.40;99.90;;;;;;5122100;28;20036;-77
2023/08/08 06:02:49;;;;;;;7.47;2.40;;;15.50;99.90;;;;;;5118526;28;20067;-80
2023/08/08 06:05:22;;;;;;;6.63;1.90;;;15.50;99.90;;;;;;5111470;28;20051;-78
2023/08/08 06:07:48;;;;;;;10.18;1.90;;;15.60;99.90;;;;;;5099668;28;20525;-78
2023/08/08 06:10:14;;;;;;;9.65;1.80;;;15.60;99.90;;;;;;5104036;28;20040;-76
2023/08/08 06:12:39;;;;;;;5.57;1.70;;;15.70;99.90;;;;;;5125432;28;20118;-80
2023/08/08 06:15:06;;;;;;;5.30;1.70;;;15.70;99.90;;;;;;5125626;27;20093;-79
2023/08/08 06:17:31;;;;;;;6.82;2.08;;;15.80;99.90;;;;;;5124391;28;20099;-78
2023/08/08 06:19:57;;;;;;;9.15;1.83;;;15.80;99.90;;;;;;5120938;28;20078;-79
2023/08/08 06:22:23;;;;;;;6.53;1.90;;;15.90;99.90;;;;;;5125219;28;20062;-79
2023/08/08 06:24:49;;;;;;;5.60;1.58;;;16.00;99.90;;;;;;5120552;28;20127;-78
2023/08/08 06:27:15;;;;;;;6.65;1.67;;;16.10;99.90;;;;;;5103727;28;20520;-79
2023/08/08 06:29:41;;;;;;;9.73;2.25;;;16.20;99.90;;;;;;5118197;28;20078;-80
2023/08/08 06:32:07;;;;;;;8.10;1.85;;;16.30;99.90;;;;;;5122899;28;20086;-79
2023/08/08 06:34:33;;;;;;;10.38;2.45;;;16.40;99.90;;;;;;5111356;28;20067;-80
2023/08/08 06:36:59;;;;;;;5.53;1.65;;;16.60;99.90;;;;;;5105430;28;20036;-80
2023/08/08 06:39:25;;;;;;;6.97;1.85;;;16.70;99.90;;;;;;5103534;28;20040;-78
2023/08/08 06:41:50;;;;;;;11.60;2.28;;;17.00;99.90;;;;;;5119814;28;20040;-79
2023/08/08 06:44:16;;;;;;;11.55;2.28;;;17.30;99.90;;;;;;5127222;27;20137;-79
2023/08/08 06:46:43;;;;;;;9.05;1.80;;;17.60;99.90;;;;;;5126592;28;20040;-78
2023/08/08 06:49:09;;;;;;;9.32;1.95;;;17.80;99.90;;;;;;5125060;28;20047;-78
2023/08/08 06:51:35;;;;;;;4.43;1.73;;;17.80;99.90;;;;;;5107209;28;20058;-79
2023/08/08 06:54:01;;;;;;;5.32;1.90;;;17.90;99.90;;;;;;5106845;28;20047;-79
2023/08/08 06:56:26;;;;;;;7.85;2.08;;;17.80;99.90;;;;;;5102175;28;20044;-79
2023/08/08 06:58:53;;;;;;;6.88;1.95;;;17.70;99.90;;;;;;5103219;28;20051;-79
2023/08/08 07:01:19;;;;;;;9.18;2.70;;;17.60;99.90;;;;;;5121691;28;20126;-77
2023/08/08 07:03:44;;;;;;;8.00;1.73;;;17.60;99.90;;;;;;5121210;28;20071;-79
2023/08/08 07:06:10;;;;;;;9.48;1.60;;;17.60;99.90;;;;;;5122553;28;20066;-79
2023/08/08 07:08:39;;;;;;;10.52;2.42;;;17.60;99.90;;;;;;5105185;28;20047;-79
2023/08/08 07:11:08;;;;;;;9.95;1.55;;;17.60;99.90;;;;;;5105142;28;20063;-79
2023/08/08 07:13:34;;;;;;;10.27;2.20;;;17.60;99.90;;;;;;5117382;28;20041;-79
2023/08/08 07:16:00;;;;;;;9.50;1.75;;;17.50;99.90;;;;;;5105341;28;20044;-80
2023/08/08 07:18:26;;;;;;;7.40;1.90;;;17.50;99.90;;;;;;5102347;28;20044;-80
2023/08/08 07:20:51;;;;;;;10.45;1.60;;;17.50;99.90;;;;;;5104278;28;20097;-80
2023/08/08 07:23:17;;;;;;;13.05;2.63;;;17.50;99.90;;;;;;5103120;28;20061;-81
2023/08/08 07:25:44;;;;;;;7.70;1.70;;;17.50;99.90;;;;;;5106101;28;20040;-81
2023/08/08 07:28:10;;;;;;;6.32;1.70;;;17.50;99.90;;;;;;5105905;28;20115;-81
2023/08/08 07:30:36;;;;;;;8.23;1.98;;;17.60;99.90;;;;;;5115250;28;20071;-79
2023/08/08 07:33:02;;;;;;;7.10;1.67;;;17.60;99.90;;;;;;5123838;28;20047;-81
2023/08/08 07:35:27;;;;;;;10.63;2.53;;;17.70;99.90;;;;;;5122571;28;20101;-80
2023/08/08 07:37:53;;;;;;;16.98;2.60;;;17.80;99.90;;;;;;5103622;28;20036;-80
2023/08/08 07:40:21;;;;;;;11.85;2.00;;;17.80;99.90;;;;;;5102092;28;20047;-80
2023/08/08 07:42:48;;;;;;;5.65;1.58;;;17.80;99.90;;;;;;5102378;28;20112;-80
2023/08/08 07:45:14;;;;;;;8.82;1.80;;;17.70;99.90;;;;;;5119522;28;20397;-78
2023/08/08 07:47:40;;;;;;;8.85;1.92;;;17.70;99.90;;;;;;5124242;28;20035;-80
2023/08/08 07:50:08;;;;;;;10.00;2.25;;;17.70;99.90;;;;;;5103130;28;20557;-80
2023/08/08 07:52:34;;;;;;;3.72;1.15;;;17.80;99.90;;;;;;5121515;28;20516;-79
2023/08/08 07:55:00;;;;;;;7.32;1.50;;;17.90;99.90;;;;;;5105289;28;20063;-80
2023/08/08 07:57:27;;;;;;;6.75;1.35;;;17.90;99.90;;;;;;5107209;28;20051;-83
2023/08/08 07:59:52;;;;;;;9.23;1.60;;;17.90;99.90;;;;;;5121274;28;20050;-80
2023/08/08 08:02:18;;;;;;;6.90;1.63;;;17.80;99.90;;;;;;5119451;28;20498;-80
2023/08/08 08:04:44;;;;;;;8.23;2.08;;;17.70;99.90;;;;;;5110692;28;20075;-80
2023/08/08 08:07:09;;;;;;;8.43;1.70;;;17.80;99.90;;;;;;5122743;28;20112;-79
2023/08/08 08:09:35;;;;;;;6.68;1.58;;;18.00;99.90;;;;;;5120582;28;20046;-81
2023/08/08 08:12:01;;;;;;;11.32;2.00;;;18.10;99.90;;;;;;5115936;28;20058;-79
2023/08/08 08:14:27;;;;;;;6.40;1.65;;;18.10;99.90;;;;;;5110821;28;20036;-80
2023/08/08 08:16:53;;;;;;;8.90;1.85;;;18.10;99.90;;;;;;5106888;28;20052;-79
2023/08/08 08:19:20;;;;;;;8.57;1.75;;;18.00;99.90;;;;;;5108879;28;20077;-78
2023/08/08 08:21:46;;;;;;;7.80;1.92;;;18.00;99.90;;;;;;5126660;28;20060;-80
2023/08/08 08:24:11;;;;;;;7.72;1.67;;;18.00;99.90;;;;;;5109620;28;20078;-80
2023/08/08 08:26:37;;;;;;;5.72;1.65;;;18.00;99.90;;;;;;5125036;28;20048;-79
2023/08/08 08:29:03;;;;;;;8.50;1.92;;;18.00;99.90;;;;;;5124180;28;20512;-79
2023/08/08 08:31:28;;;;;;;6.63;1.65;;;18.00;99.90;;;;;;5110154;28;20059;-80
2023/08/08 08:33:55;;;;;;;7.15;1.58;;;17.90;99.90;;;;;;5116057;28;20042;-78
2023/08/08 08:36:21;;;;;;;4.97;1.52;;;17.80;99.90;;;;;;5101943;28;20052;-80
2023/08/08 08:38:47;;;;;;;9.82;1.40;;;17.80;99.90;;;;;;5105937;28;20133;-81
2023/08/08 08:41:18;;;;;;;6.57;1.38;;;17.60;99.90;;;;;;5099669;28;20049;-81
2023/08/08 08:43:44;;;;;;;6.78;1.40;;;17.70;99.90;;;;;;5113517;28;20036;-82
2023/08/08 08:46:11;;;;;;;9.98;2.30;;;17.60;99.90;;;;;;5124984;28;20091;-79
2023/08/08 08:48:37;;;;;;;8.98;1.67;;;17.60;99.90;;;;;;5124482;28;20047;-79
2023/08/08 08:51:03;;;;;;;7.25;1.90;;;17.50;99.90;;;;;;5120228;28;20040;-81
2023/08/08 08:53:29;;;;;;;7.10;1.60;;;17.50;99.90;;;;;;5123464;28;20047;-80
2023/08/08 08:55:57;;;;;;;5.15;1.65;;;17.50;99.90;;;;;;5121856;28;20470;-82
2023/08/08 08:58:25;;;;;;;6.53;1.40;;;17.60;99.90;;;;;;5120370;28;20518;-81
2023/08/08 09:00:52;;;;;;;6.15;1.52;;;17.80;99.90;;;;;;5096006;28;20039;-80
2023/08/08 09:03:19;;;;;;;7.78;1.60;;;17.90;99.90;;;;;;5117581;28;20063;-79
2023/08/08 09:05:45;;;;;;;7.75;1.60;;;18.00;99.90;;;;;;5101751;28;20494;-78
2023/08/08 09:08:12;;;;;;;8.63;1.77;;;17.80;99.90;;;;;;5117947;28;20043;-79
2023/08/08 09:10:38;;;;;;;6.18;1.65;;;18.00;99.90;;;;;;5112606;28;20504;-78
2023/08/08 09:13:04;;;;;;;6.78;2.05;;;18.20;99.90;;;;;;5101990;28;20042;-78
2023/08/08 09:15:31;;;;;;;5.93;1.50;;;18.20;99.90;;;;;;5118102;28;20394;-79
2023/08/08 09:17:57;;;;;;;12.30;1.88;;;18.10;99.90;;;;;;5120289;28;20044;-78
2023/08/08 09:20:25;;;;;;;3.92;1.65;;;18.10;99.90;;;;;;5109221;28;20051;-79
2023/08/08 09:22:52;;;;;;;8.25;1.75;;;18.00;99.90;;;;;;5100534;28;20111;-79
2023/08/08 09:25:18;;;;;;;4.18;1.65;;;18.00;99.90;;;;;;5121273;28;20048;-79
2023/08/08 09:27:44;;;;;;;4.63;1.48;;;18.10;99.90;;;;;;5122354;28;20043;-80
2023/08/08 09:30:11;;;;;;;7.30;1.85;;;18.30;99.90;;;;;;5119100;28;20401;-81
2023/08/08 09:32:37;;;;;;;12.27;2.00;;;18.50;99.90;;;;;;5119426;28;20077;-80
2023/08/08 09:35:09;;;;;;;6.85;1.48;;;18.60;99.90;;;;;;5117425;28;20044;-80
2023/08/08 09:37:35;;;;;;;6.03;1.98;;;18.60;99.90;;;;;;5113693;28;20043;-79
2023/08/08 09:40:03;;;;;;;8.27;1.60;;;18.60;99.90;;;;;;5121562;28;20103;-79
2023/08/08 09:42:29;;;;;;;6.05;1.35;;;18.50;99.90;;;;;;5108011;27;20398;-79
2023/08/08 09:44:58;;;;;;;8.35;2.15;;;18.50;99.90;;;;;;5124281;28;20043;-80
2023/08/08 09:47:30;;;;;;;6.30;2.00;;;18.60;99.90;;;;;;5121200;28;20035;-78
2023/08/08 09:49:59;;;;;;;6.82;1.52;;;18.70;99.90;;;;;;5118893;27;20410;-78
2023/08/08 09:52:29;;;;;;;6.18;1.75;;;18.90;99.90;;;;;;5105903;28;20397;-79
2023/08/08 09:54:55;;;;;;;5.47;1.30;;;19.10;99.90;;;;;;5105855;28;20044;-80
2023/08/08 09:57:25;;;;;;;8.15;1.40;;;19.30;99.90;;;;;;5121533;28;20044;-81
2023/08/08 09:59:52;;;;;;;6.35;1.38;;;19.40;99.90;;;;;;5116810;27;20040;-79
2023/08/08 10:02:18;;;;;;;2.72;1.10;;;19.40;99.90;;;;;;5088483;28;20044;-81
2023/08/08 10:04:45;;;;;;;9.15;1.20;;;19.30;99.90;;;;;;5105810;28;20089;-79
2023/08/08 10:07:11;;;;;;;7.68;1.55;;;18.80;99.90;;;;;;5106007;28;20085;-81
2023/08/08 10:09:37;;;;;;;7.35;1.35;;;18.40;99.90;;;;;;5105917;28;20040;-77
2023/08/08 10:12:06;;;;;;;5.93;1.67;;;18.10;99.90;;;;;;5100244;28;20382;-76
2023/08/08 10:14:36;;;;;;;3.75;1.23;;;17.80;99.90;;;;;;5100536;28;20036;-76
2023/08/08 10:17:06;;;;;;;4.68;1.40;;;17.30;99.90;;;;;;5111553;28;20040;-76
2023/08/08 10:19:32;;;;;;;3.05;1.15;;;17.20;99.90;;;;;;5117183;27;20105;-76
2023/08/08 10:22:07;;;;;;;6.25;1.63;;;17.10;99.90;;;;;;5110143;28;20392;-77
2023/08/08 10:24:38;;;;;;;7.63;1.55;;;17.10;99.90;;;;;;5118736;27;20118;-77
2023/08/08 10:27:05;;;;;;;9.85;1.92;;;17.40;99.90;;;;;;5119146;28;20055;-77
2023/08/08 10:29:32;;;;;;;5.43;1.88;;;17.50;99.90;;;;;;5107801;27;20425;-76
2023/08/08 10:32:01;;;;;;;5.00;1.40;;;17.50;99.90;;;;;;5099286;28;20139;-77
2023/08/08 10:34:44;;;;;;;5.63;1.58;;;17.40;99.90;;;;;;5083287;28;20419;-77
2023/08/08 10:37:19;;;;;;;8.15;2.13;;;17.30;99.90;;;;;;5113257;28;20554;-77
2023/08/08 10:39:57;;;;;;;10.20;1.90;;;17.30;99.90;;;;;;5108050;27;20071;-79
2023/08/08 10:42:25;;;;;;;8.03;1.80;;;17.40;99.90;;;;;;5100119;28;20044;-78
2023/08/08 10:45:01;;;;;;;7.18;2.15;;;17.70;99.90;;;;;;5099080;28;20052;-77
2023/08/08 10:47:34;;;;;;;5.68;1.58;;;18.00;99.90;;;;;;5107976;28;20123;-77
2023/08/08 10:50:07;;;;;;;5.95;1.55;;;18.20;99.90;;;;;;5114328;28;20062;-76
2023/08/08 10:52:37;;;;;;;5.85;1.60;;;18.60;99.90;;;;;;5110856;28;20123;-78
2023/08/08 10:55:04;;;;;;;8.15;1.58;;;19.00;99.90;;;;;;5118854;28;20043;-79
2023/08/08 10:57:30;;;;;;;8.07;2.25;;;19.30;99.90;;;;;;5114291;28;20055;-78
2023/08/08 11:00:17;;;;;;;3.72;1.60;;;19.50;99.90;;;;;;5117369;28;20043;-76
2023/08/08 11:02:44;;;;;;;3.78;1.30;;;19.80;99.90;;;;;;5119488;28;20047;-76
2023/08/08 11:05:10;;;;;;;6.57;1.50;;;20.00;99.90;;;;;;5097393;28;20059;-76
2023/08/08 11:07:37;;;;;;;5.93;1.40;;;20.20;99.90;;;;;;5091348;28;20040;-76
2023/08/08 11:10:04;;;;;;;6.75;1.80;;;20.40;99.90;;;;;;5101075;28;20093;-80
2023/08/08 11:12:29;;;;;;;5.38;1.83;;;20.60;99.90;;;;;;5082676;28;20150;-79
2023/08/08 11:14:55;;;;;;;7.95;1.30;;;20.60;99.50;;;;;;5105242;28;20480;-78
2023/08/08 11:17:20;;;;;;;10.82;1.85;;;20.60;98.60;;;;;;5106969;28;20059;-79
2023/08/08 11:19:46;;;;;;;6.43;1.48;;;20.50;98.90;;;;;;5109851;28;20036;-78
2023/08/08 11:22:12;;;;;;;7.47;1.85;;;20.40;99.80;;;;;;5123378;28;20052;-78
2023/08/08 11:24:38;;;;;;;4.57;1.33;;;20.20;99.00;;;;;;5120357;28;20096;-78
2023/08/08 11:27:04;;;;;;;8.35;1.80;;;20.00;98.20;;;;;;5103121;28;20058;-77
2023/08/08 11:29:31;;;;;;;8.68;1.85;;;19.90;98.70;;;;;;5116801;28;20040;-77
2023/08/08 11:31:59;;;;;;;3.33;1.30;;;19.90;98.70;;;;;;5121217;28;20043;-77
2023/08/08 11:34:25;;;;;;;5.43;1.55;;;20.10;98.70;;;;;;5120611;28;20039;-77
2023/08/08 11:36:52;;;;;;;6.75;1.40;;;20.30;98.60;;;;;;5117510;28;20131;-78
2023/08/08 11:39:20;;;;;;;6.65;1.63;;;20.60;98.00;;;;;;5124541;28;20094;-78
2023/08/08 11:41:45;;;;;;;5.72;1.50;;;20.90;97.70;;;;;;5121670;28;20126;-79
2023/08/08 11:44:11;;;;;;;5.40;1.25;;;20.90;96.60;;;;;;5124772;28;20063;-79
2023/08/08 11:46:46;;;;;;;4.68;1.20;;;20.80;96.30;;;;;;5130158;27;20050;-81
2023/08/08 11:49:15;;;;;;;6.00;1.25;;;20.80;97.80;;;;;;5124838;28;20040;-78
2023/08/08 11:51:43;;;;;;;10.43;1.73;;;20.70;96.50;;;;;;5120306;28;20039;-78
2023/08/08 11:54:09;;;;;;;3.65;1.23;;;20.60;96.20;;;;;;5123118;28;20040;-78
2023/08/08 11:56:36;;;;;;;3.85;1.55;;;20.40;96.80;;;;;;5125457;28;20036;-78
2023/08/08 11:59:02;;;;;;;6.05;1.70;;;20.40;97.60;;;;;;5104910;28;20072;-78
2023/08/08 12:01:32;;;;;;;5.75;1.63;;;20.50;97.70;;;;;;5107237;28;20044;-79
2023/08/08 12:04:04;;;;;;;7.28;1.70;;;20.70;98.20;;;;;;5120362;28;20120;-78
2023/08/08 12:06:29;;;;;;;8.50;1.77;;;20.70;96.80;;;;;;5116442;28;20068;-77
2023/08/08 12:08:55;;;;;;;4.97;1.33;;;20.50;96.10;;;;;;5119869;28;20047;-78
2023/08/08 12:11:21;;;;;;;7.25;1.83;;;20.20;95.70;;;;;;5107997;28;20100;-79
2023/08/08 12:13:47;;;;;;;6.60;1.48;;;19.90;97.30;;;;;;5119549;28;20043;-79
2023/08/08 12:16:14;;;;;;;3.20;1.20;;;20.10;97.10;;;;;;5102547;28;20051;-79
2023/08/08 12:18:40;;;;;;;8.15;1.40;;;20.30;97.90;;;;;;5085691;28;20097;-77
2023/08/08 12:21:09;;;;;;;4.80;1.42;;;20.30;96.30;;;;;;5100729;28;20052;-79
2023/08/08 12:23:36;;;;;;;8.27;1.70;;;20.00;97.10;;;;;;5098601;28;20073;-80
2023/08/08 12:26:05;;;;;;;7.47;1.63;;;19.70;98.10;;;;;;5109113;28;20081;-78
2023/08/08 12:28:31;;;;;;;9.13;2.03;;;19.70;99.30;;;;;;5121285;28;20780;-79
2023/08/08 12:30:56;;;;;;;4.45;1.42;;;19.90;98.60;;;;;;5119544;28;20028;-79
2023/08/08 12:33:22;;;;;;;5.28;1.77;;;20.10;98.30;;;;;;5115744;28;20076;-79
2023/08/08 12:35:48;;;;;;;7.00;1.67;;;20.10;98.80;;;;;;5124481;28;20039;-78
2023/08/08 12:38:16;;;;;;;6.13;1.88;;;20.20;99.40;;;;;;5103237;28;20047;-80
2023/08/08 12:40:42;;;;;;;5.50;1.60;;;20.10;98.50;;;;;;5083596;28;20494;-79
2023/08/08 12:43:09;;;;;;;8.77;1.92;;;19.90;99.00;;;;;;5099815;28;20132;-79